sensor_id;sensor_type;location;lat;lon;timestamp;temperature;humidity
10512;DHT22;5304;48.604;2.096;2022-07-01T00:02:23;11.70;99.90
10512;DHT22;5304;48.604;2.096;2022-07-01T00:05:08;11.70;99.90
10512;DHT22;5304;48.604;2.096;2022-07-01T00:07:53;11.60;99.90
10512;DHT22;5304;48.604;2.096;2022-07-01T00:10:37;11.60;99.90
10512;DHT22;5304;48.604;2.096;2022-07-01T00:13:22;11.60;99.90
10512;DHT22;5304;48.604;2.096;2022-07-01T00:16:06;11.80;99.90
10512;DHT22;5304;48.604;2.096;2022-07-01T00:18:51;11.80;99.90
10512;DHT22;5304;48.604;2.096;2022-07-01T00:21:35;11.90;99.90
10512;DHT22;5304;48.604;2.096;2022-07-01T00:24:20;11.90;99.90
10512;DHT22;5304;48.604;2.096;2022-07-01T00:27:05;11.90;99.90
10512;DHT22;5304;48.604;2.096;2022-07-01T00:29:49;11.90;99.90
10512;DHT22;5304;48.604;2.096;2022-07-01T00:32:34;11.90;99.90
10512;DHT22;5304;48.604;2.096;2022-07-01T00:35:18;11.80;99.90
10512;DHT22;5304;48.604;2.096;2022-07-01T00:38:03;11.70;99.90
10512;DHT22;5304;48.604;2.096;2022-07-01T00:40:55;11.60;99.90
10512;DHT22;5304;48.604;2.096;2022-07-01T00:43:39;11.60;99.90
10512;DHT22;5304;48.604;2.096;2022-07-01T00:46:25;11.60;99.90
10512;DHT22;5304;48.604;2.096;2022-07-01T00:49:10;11.50;99.90
10512;DHT22;5304;48.604;2.096;2022-07-01T00:51:55;11.40;99.90
10512;DHT22;5304;48.604;2.096;2022-07-01T00:54:40;11.40;99.90
10512;DHT22;5304;48.604;2.096;2022-07-01T00:57:30;11.30;99.90
10512;DHT22;5304;48.604;2.096;2022-07-01T01:00:17;11.30;99.90
10512;DHT22;5304;48.604;2.096;2022-07-01T01:03:09;11.20;99.90
10512;DHT22;5304;48.604;2.096;2022-07-01T01:05:55;11.20;99.90
10512;DHT22;5304;48.604;2.096;2022-07-01T01:08:42;11.20;99.90
10512;DHT22;5304;48.604;2.096;2022-07-01T01:11:26;11.20;99.90
10512;DHT22;5304;48.604;2.096;2022-07-01T01:14:11;11.20;99.90
10512;DHT22;5304;48.604;2.096;2022-07-01T01:16:57;11.20;99.90
10512;DHT22;5304;48.604;2.096;2022-07-01T01:19:42;11.10;99.90
10512;DHT22;5304;48.604;2.096;2022-07-01T01:22:27;11.20;99.90
10512;DHT22;5304;48.604;2.096;2022-07-01T01:25:12;11.10;99.90
10512;DHT22;5304;48.604;2.096;2022-07-01T01:27:57;11.10;99.90
10512;DHT22;5304;48.604;2.096;2022-07-01T01:30:42;11.10;99.90
10512;DHT22;5304;48.604;2.096;2022-07-01T01:33:26;11.10;99.90
10512;DHT22;5304;48.604;2.096;2022-07-01T01:36:11;11.00;99.90
10512;DHT22;5304;48.604;2.096;2022-07-01T01:38:55;10.90;99.90
10512;DHT22;5304;48.604;2.096;2022-07-01T01:41:47;11.00;99.90
10512;DHT22;5304;48.604;2.096;2022-07-01T01:44:32;10.90;99.90
10512;DHT22;5304;48.604;2.096;2022-07-01T01:47:17;10.80;99.90
10512;DHT22;5304;48.604;2.096;2022-07-01T01:50:04;10.80;99.90
10512;DHT22;5304;48.604;2.096;2022-07-01T01:52:48;10.80;99.90
10512;DHT22;5304;48.604;2.096;2022-07-01T01:55:33;10.80;99.90
10512;DHT22;5304;48.604;2.096;2022-07-01T01:58:17;10.80;99.90
10512;DHT22;5304;48.604;2.096;2022-07-01T02:01:01;10.70;99.90
10512;DHT22;5304;48.604;2.096;2022-07-01T02:03:47;10.70;99.90
10512;DHT22;5304;48.604;2.096;2022-07-01T02:06:32;10.60;99.90
10512;DHT22;5304;48.604;2.096;2022-07-01T02:09:17;10.60;99.90
10512;DHT22;5304;48.604;2.096;2022-07-01T02:12:02;10.50;99.90
10512;DHT22;5304;48.604;2.096;2022-07-01T02:14:48;10.50;99.90
10512;DHT22;5304;48.604;2.096;2022-07-01T02:17:33;10.60;99.90
10512;DHT22;5304;48.604;2.096;2022-07-01T02:20:17;10.60;99.90
10512;DHT22;5304;48.604;2.096;2022-07-01T02:23:02;10.70;99.90
10512;DHT22;5304;48.604;2.096;2022-07-01T02:25:46;10.70;99.90
10512;DHT22;5304;48.604;2.096;2022-07-01T02:28:30;10.70;99.90
10512;DHT22;5304;48.604;2.096;2022-07-01T02:31:15;10.60;99.90
10512;DHT22;5304;48.604;2.096;2022-07-01T02:33:59;10.60;99.90
10512;DHT22;5304;48.604;2.096;2022-07-01T02:36:44;10.60;99.90
10512;DHT22;5304;48.604;2.096;2022-07-01T02:39:28;10.70;99.90
10512;DHT22;5304;48.604;2.096;2022-07-01T02:42:12;10.60;99.90
10512;DHT22;5304;48.604;2.096;2022-07-01T02:45:15;10.60;99.90
10512;DHT22;5304;48.604;2.096;2022-07-01T02:48:00;10.60;99.90
10512;DHT22;5304;48.604;2.096;2022-07-01T02:50:45;10.60;99.90
10512;DHT22;5304;48.604;2.096;2022-07-01T02:53:30;10.60;99.90
10512;DHT22;5304;48.604;2.096;2022-07-01T02:56:14;10.60;99.90
10512;DHT22;5304;48.604;2.096;2022-07-01T02:58:58;10.60;99.90
10512;DHT22;5304;48.604;2.096;2022-07-01T03:01:42;10.60;99.90
10512;DHT22;5304;48.604;2.096;2022-07-01T03:04:27;10.60;99.90
10512;DHT22;5304;48.604;2.096;2022-07-01T03:07:12;10.60;99.90
10512;DHT22;5304;48.604;2.096;2022-07-01T03:09:56;10.50;99.90
10512;DHT22;5304;48.604;2.096;2022-07-01T03:12:41;10.50;99.90
10512;DHT22;5304;48.604;2.096;2022-07-01T03:15:25;10.50;99.90
10512;DHT22;5304;48.604;2.096;2022-07-01T03:18:10;10.50;99.90
10512;DHT22;5304;48.604;2.096;2022-07-01T03:20:55;10.50;99.90
10512;DHT22;5304;48.604;2.096;2022-07-01T03:23:39;10.50;99.90
10512;DHT22;5304;48.604;2.096;2022-07-01T03:26:25;10.50;99.90
10512;DHT22;5304;48.604;2.096;2022-07-01T03:29:09;10.50;99.90
10512;DHT22;5304;48.604;2.096;2022-07-01T03:31:53;10.50;99.90
10512;DHT22;5304;48.604;2.096;2022-07-01T03:34:39;10.50;99.90
10512;DHT22;5304;48.604;2.096;2022-07-01T03:37:23;10.50;99.90
10512;DHT22;5304;48.604;2.096;2022-07-01T03:40:08;10.50;99.90
10512;DHT22;5304;48.604;2.096;2022-07-01T03:42:53;10.50;99.90
10512;DHT22;5304;48.604;2.096;2022-07-01T03:45:37;10.50;99.90
10512;DHT22;5304;48.604;2.096;2022-07-01T03:48:23;10.40;99.90
10512;DHT22;5304;48.604;2.096;2022-07-01T03:51:09;10.40;99.90
10512;DHT22;5304;48.604;2.096;2022-07-01T03:53:54;10.40;99.90
10512;DHT22;5304;48.604;2.096;2022-07-01T03:56:58;10.40;99.90
10512;DHT22;5304;48.604;2.096;2022-07-01T03:59:43;10.40;99.90
10512;DHT22;5304;48.604;2.096;2022-07-01T04:02:27;10.30;99.90
10512;DHT22;5304;48.604;2.096;2022-07-01T04:05:11;10.40;99.90
10512;DHT22;5304;48.604;2.096;2022-07-01T04:07:56;10.30;99.90
10512;DHT22;5304;48.604;2.096;2022-07-01T04:10:41;10.30;99.90
10512;DHT22;5304;48.604;2.096;2022-07-01T04:13:26;10.30;99.90
10512;DHT22;5304;48.604;2.096;2022-07-01T04:16:12;10.30;99.90
10512;DHT22;5304;48.604;2.096;2022-07-01T04:18:57;10.30;99.90
10512;DHT22;5304;48.604;2.096;2022-07-01T04:21:42;10.40;99.90
10512;DHT22;5304;48.604;2.096;2022-07-01T04:24:45;10.30;99.90
10512;DHT22;5304;48.604;2.096;2022-07-01T04:27:32;10.30;99.90
10512;DHT22;5304;48.604;2.096;2022-07-01T04:30:17;10.40;99.90
10512;DHT22;5304;48.604;2.096;2022-07-01T04:33:01;10.40;99.90
10512;DHT22;5304;48.604;2.096;2022-07-01T04:35:45;10.40;99.90
10512;DHT22;5304;48.604;2.096;2022-07-01T04:38:30;10.40;99.90
10512;DHT22;5304;48.604;2.096;2022-07-01T04:41:15;10.40;99.90
10512;DHT22;5304;48.604;2.096;2022-07-01T04:44:19;10.40;99.90
10512;DHT22;5304;48.604;2.096;2022-07-01T04:47:04;10.40;99.90
10512;DHT22;5304;48.604;2.096;2022-07-01T04:49:49;10.40;99.90
10512;DHT22;5304;48.604;2.096;2022-07-01T04:52:34;10.50;99.90
10512;DHT22;5304;48.604;2.096;2022-07-01T04:55:18;10.50;99.90
10512;DHT22;5304;48.604;2.096;2022-07-01T04:58:02;10.60;99.90
10512;DHT22;5304;48.604;2.096;2022-07-01T05:00:46;10.60;99.90
10512;DHT22;5304;48.604;2.096;2022-07-01T05:03:32;10.60;99.90
10512;DHT22;5304;48.604;2.096;2022-07-01T05:06:16;10.70;99.90
10512;DHT22;5304;48.604;2.096;2022-07-01T05:09:01;10.70;99.90
10512;DHT22;5304;48.604;2.096;2022-07-01T05:11:46;10.80;99.90
10512;DHT22;5304;48.604;2.096;2022-07-01T05:14:30;10.90;99.90
10512;DHT22;5304;48.604;2.096;2022-07-01T05:17:15;10.90;99.90
10512;DHT22;5304;48.604;2.096;2022-07-01T05:19:59;11.00;99.90
10512;DHT22;5304;48.604;2.096;2022-07-01T05:23:03;11.00;99.90
10512;DHT22;5304;48.604;2.096;2022-07-01T05:25:47;11.10;99.90
10512;DHT22;5304;48.604;2.096;2022-07-01T05:28:32;11.20;99.90
10512;DHT22;5304;48.604;2.096;2022-07-01T05:31:16;11.30;99.90
10512;DHT22;5304;48.604;2.096;2022-07-01T05:34:01;11.50;99.90
10512;DHT22;5304;48.604;2.096;2022-07-01T05:36:45;11.50;99.90
10512;DHT22;5304;48.604;2.096;2022-07-01T05:39:30;11.50;99.90
10512;DHT22;5304;48.604;2.096;2022-07-01T05:42:14;11.60;99.90
10512;DHT22;5304;48.604;2.096;2022-07-01T05:44:58;11.60;99.90
10512;DHT22;5304;48.604;2.096;2022-07-01T05:47:43;11.70;99.90
10512;DHT22;5304;48.604;2.096;2022-07-01T05:50:27;11.80;99.90
10512;DHT22;5304;48.604;2.096;2022-07-01T05:53:12;11.90;99.90
10512;DHT22;5304;48.604;2.096;2022-07-01T05:55:57;11.90;99.90
10512;DHT22;5304;48.604;2.096;2022-07-01T05:58:42;12.00;99.90
10512;DHT22;5304;48.604;2.096;2022-07-01T06:01:27;12.20;99.90
10512;DHT22;5304;48.604;2.096;2022-07-01T06:04:11;12.20;99.90
10512;DHT22;5304;48.604;2.096;2022-07-01T06:06:56;12.30;99.90
10512;DHT22;5304;48.604;2.096;2022-07-01T06:09:40;12.50;99.90
10512;DHT22;5304;48.604;2.096;2022-07-01T06:12:25;12.60;99.90
10512;DHT22;5304;48.604;2.096;2022-07-01T06:15:12;12.80;99.90
10512;DHT22;5304;48.604;2.096;2022-07-01T06:17:56;12.90;99.90
10512;DHT22;5304;48.604;2.096;2022-07-01T06:20:41;12.90;99.90
10512;DHT22;5304;48.604;2.096;2022-07-01T06:23:25;13.00;99.90
10512;DHT22;5304;48.604;2.096;2022-07-01T06:26:10;13.10;99.90
10512;DHT22;5304;48.604;2.096;2022-07-01T06:28:54;13.20;99.90
10512;DHT22;5304;48.604;2.096;2022-07-01T06:31:39;13.30;99.90
10512;DHT22;5304;48.604;2.096;2022-07-01T06:34:23;13.40;99.90
10512;DHT22;5304;48.604;2.096;2022-07-01T06:37:08;13.40;99.90
10512;DHT22;5304;48.604;2.096;2022-07-01T06:39:52;13.50;99.90
10512;DHT22;5304;48.604;2.096;2022-07-01T06:42:36;13.70;99.90
10512;DHT22;5304;48.604;2.096;2022-07-01T06:45:21;13.80;99.90
10512;DHT22;5304;48.604;2.096;2022-07-01T06:48:05;13.90;99.90
10512;DHT22;5304;48.604;2.096;2022-07-01T06:50:50;14.00;99.90
10512;DHT22;5304;48.604;2.096;2022-07-01T06:53:34;14.20;99.90
10512;DHT22;5304;48.604;2.096;2022-07-01T06:56:19;14.50;99.90
10512;DHT22;5304;48.604;2.096;2022-07-01T06:59:04;14.70;99.90
10512;DHT22;5304;48.604;2.096;2022-07-01T07:01:49;14.80;99.90
10512;DHT22;5304;48.604;2.096;2022-07-01T07:04:34;14.90;99.90
10512;DHT22;5304;48.604;2.096;2022-07-01T07:07:21;15.00;99.90
10512;DHT22;5304;48.604;2.096;2022-07-01T07:10:06;15.10;99.90
10512;DHT22;5304;48.604;2.096;2022-07-01T07:12:51;15.10;99.90
10512;DHT22;5304;48.604;2.096;2022-07-01T07:15:36;15.20;99.90
10512;DHT22;5304;48.604;2.096;2022-07-01T07:18:20;15.30;99.90
10512;DHT22;5304;48.604;2.096;2022-07-01T07:21:05;15.40;99.90
10512;DHT22;5304;48.604;2.096;2022-07-01T07:23:49;15.50;99.90
10512;DHT22;5304;48.604;2.096;2022-07-01T07:26:34;15.50;99.90
10512;DHT22;5304;48.604;2.096;2022-07-01T07:29:18;15.70;99.90
10512;DHT22;5304;48.604;2.096;2022-07-01T07:32:03;15.90;99.90
10512;DHT22;5304;48.604;2.096;2022-07-01T07:34:48;16.00;99.90
10512;DHT22;5304;48.604;2.096;2022-07-01T07:37:32;16.20;99.90
10512;DHT22;5304;48.604;2.096;2022-07-01T07:40:17;16.40;99.90
10512;DHT22;5304;48.604;2.096;2022-07-01T07:43:05;16.90;99.90
10512;DHT22;5304;48.604;2.096;2022-07-01T07:45:51;17.60;99.90
10512;DHT22;5304;48.604;2.096;2022-07-01T07:48:36;18.30;99.90
10512;DHT22;5304;48.604;2.096;2022-07-01T07:51:20;18.40;99.90
10512;DHT22;5304;48.604;2.096;2022-07-01T07:54:06;18.50;99.90
10512;DHT22;5304;48.604;2.096;2022-07-01T07:56:51;18.40;99.90
10512;DHT22;5304;48.604;2.096;2022-07-01T07:59:36;18.50;99.90
10512;DHT22;5304;48.604;2.096;2022-07-01T08:02:20;18.50;99.90
10512;DHT22;5304;48.604;2.096;2022-07-01T08:05:05;18.60;99.90
10512;DHT22;5304;48.604;2.096;2022-07-01T08:07:50;18.80;99.90
10512;DHT22;5304;48.604;2.096;2022-07-01T08:10:34;18.90;99.90
10512;DHT22;5304;48.604;2.096;2022-07-01T08:13:19;19.20;99.90
10512;DHT22;5304;48.604;2.096;2022-07-01T08:16:04;20.00;99.90
10512;DHT22;5304;48.604;2.096;2022-07-01T08:18:48;20.70;99.90
10512;DHT22;5304;48.604;2.096;2022-07-01T08:21:33;21.20;99.90
10512;DHT22;5304;48.604;2.096;2022-07-01T08:24:17;22.00;99.90
10512;DHT22;5304;48.604;2.096;2022-07-01T08:27:02;22.90;99.90
10512;DHT22;5304;48.604;2.096;2022-07-01T08:29:47;23.20;99.90
10512;DHT22;5304;48.604;2.096;2022-07-01T08:32:31;22.40;99.90
10512;DHT22;5304;48.604;2.096;2022-07-01T08:35:16;21.50;99.90
10512;DHT22;5304;48.604;2.096;2022-07-01T08:38:01;20.70;99.90
10512;DHT22;5304;48.604;2.096;2022-07-01T08:40:46;21.00;99.90
10512;DHT22;5304;48.604;2.096;2022-07-01T08:43:30;21.10;99.90
10512;DHT22;5304;48.604;2.096;2022-07-01T08:46:15;20.90;99.90
10512;DHT22;5304;48.604;2.096;2022-07-01T08:49:00;20.30;99.90
10512;DHT22;5304;48.604;2.096;2022-07-01T08:51:44;20.30;99.90
10512;DHT22;5304;48.604;2.096;2022-07-01T08:54:29;20.30;99.90
10512;DHT22;5304;48.604;2.096;2022-07-01T08:57:19;20.20;99.90
10512;DHT22;5304;48.604;2.096;2022-07-01T09:00:05;20.50;99.90
10512;DHT22;5304;48.604;2.096;2022-07-01T09:05:37;20.80;99.90
10512;DHT22;5304;48.604;2.096;2022-07-01T09:08:27;21.10;99.90
10512;DHT22;5304;48.604;2.096;2022-07-01T09:11:19;21.40;99.90
10512;DHT22;5304;48.604;2.096;2022-07-01T09:14:11;21.70;99.90
10512;DHT22;5304;48.604;2.096;2022-07-01T09:16:58;21.60;99.90
10512;DHT22;5304;48.604;2.096;2022-07-01T09:19:48;21.10;99.90
10512;DHT22;5304;48.604;2.096;2022-07-01T09:22:35;21.20;99.90
10512;DHT22;5304;48.604;2.096;2022-07-01T09:25:19;21.30;99.90
10512;DHT22;5304;48.604;2.096;2022-07-01T09:28:10;21.20;99.90
10512;DHT22;5304;48.604;2.096;2022-07-01T09:30:57;21.20;99.90
10512;DHT22;5304;48.604;2.096;2022-07-01T09:33:43;21.40;99.90
10512;DHT22;5304;48.604;2.096;2022-07-01T09:36:29;21.70;99.90
10512;DHT22;5304;48.604;2.096;2022-07-01T09:39:14;21.50;99.90
10512;DHT22;5304;48.604;2.096;2022-07-01T09:41:58;21.70;99.90
10512;DHT22;5304;48.604;2.096;2022-07-01T09:44:57;21.90;99.90
10512;DHT22;5304;48.604;2.096;2022-07-01T09:47:42;22.00;99.90
10512;DHT22;5304;48.604;2.096;2022-07-01T09:50:29;21.60;99.90
10512;DHT22;5304;48.604;2.096;2022-07-01T09:53:15;21.20;99.90
10512;DHT22;5304;48.604;2.096;2022-07-01T09:56:00;21.50;99.90
10512;DHT22;5304;48.604;2.096;2022-07-01T09:58:45;21.70;99.90
10512;DHT22;5304;48.604;2.096;2022-07-01T10:01:31;21.60;99.90
10512;DHT22;5304;48.604;2.096;2022-07-01T10:04:17;21.70;99.90
10512;DHT22;5304;48.604;2.096;2022-07-01T10:13:02;22.20;99.90
10512;DHT22;5304;48.604;2.096;2022-07-01T10:15:47;22.40;99.90
10512;DHT22;5304;48.604;2.096;2022-07-01T10:18:32;22.60;99.90
10512;DHT22;5304;48.604;2.096;2022-07-01T10:21:30;22.60;99.90
10512;DHT22;5304;48.604;2.096;2022-07-01T10:24:17;22.50;99.90
10512;DHT22;5304;48.604;2.096;2022-07-01T10:27:23;22.50;99.90
10512;DHT22;5304;48.604;2.096;2022-07-01T10:30:12;22.80;99.90
10512;DHT22;5304;48.604;2.096;2022-07-01T10:32:59;22.80;99.90
10512;DHT22;5304;48.604;2.096;2022-07-01T10:35:47;22.30;99.90
10512;DHT22;5304;48.604;2.096;2022-07-01T10:38:32;21.80;99.90
10512;DHT22;5304;48.604;2.096;2022-07-01T10:41:23;21.30;99.90
10512;DHT22;5304;48.604;2.096;2022-07-01T10:44:13;20.90;99.90
10512;DHT22;5304;48.604;2.096;2022-07-01T10:47:07;20.80;99.90
10512;DHT22;5304;48.604;2.096;2022-07-01T10:49:54;20.70;99.90
10512;DHT22;5304;48.604;2.096;2022-07-01T10:52:58;21.00;99.90
10512;DHT22;5304;48.604;2.096;2022-07-01T10:55:48;21.10;99.90
10512;DHT22;5304;48.604;2.096;2022-07-01T10:58:39;20.80;99.90
10512;DHT22;5304;48.604;2.096;2022-07-01T11:01:23;20.70;99.90
10512;DHT22;5304;48.604;2.096;2022-07-01T11:04:07;20.80;99.90
10512;DHT22;5304;48.604;2.096;2022-07-01T11:06:52;20.90;99.90
10512;DHT22;5304;48.604;2.096;2022-07-01T11:09:37;21.30;99.90
10512;DHT22;5304;48.604;2.096;2022-07-01T11:12:22;21.80;99.90
10512;DHT22;5304;48.604;2.096;2022-07-01T11:15:08;21.80;99.90
10512;DHT22;5304;48.604;2.096;2022-07-01T11:17:55;21.50;99.90
10512;DHT22;5304;48.604;2.096;2022-07-01T11:20:40;21.40;99.90
10512;DHT22;5304;48.604;2.096;2022-07-01T11:23:24;21.10;99.90
10512;DHT22;5304;48.604;2.096;2022-07-01T11:26:21;20.90;99.90
10512;DHT22;5304;48.604;2.096;2022-07-01T11:29:05;20.70;99.90
10512;DHT22;5304;48.604;2.096;2022-07-01T11:31:54;20.40;99.90
10512;DHT22;5304;48.604;2.096;2022-07-01T11:34:38;20.40;99.90
10512;DHT22;5304;48.604;2.096;2022-07-01T11:37:27;20.80;99.90
10512;DHT22;5304;48.604;2.096;2022-07-01T11:40:31;21.60;99.90
10512;DHT22;5304;48.604;2.096;2022-07-01T11:43:20;21.90;99.90
10512;DHT22;5304;48.604;2.096;2022-07-01T11:46:07;21.90;99.90
10512;DHT22;5304;48.604;2.096;2022-07-01T11:48:52;21.60;99.90
10512;DHT22;5304;48.604;2.096;2022-07-01T11:51:37;21.60;99.90
10512;DHT22;5304;48.604;2.096;2022-07-01T11:54:22;21.60;99.90
10512;DHT22;5304;48.604;2.096;2022-07-01T12:00:06;21.70;99.90
10512;DHT22;5304;48.604;2.096;2022-07-01T12:02:51;21.50;99.90
10512;DHT22;5304;48.604;2.096;2022-07-01T12:05:36;21.30;99.90
10512;DHT22;5304;48.604;2.096;2022-07-01T12:08:21;21.20;99.90
10512;DHT22;5304;48.604;2.096;2022-07-01T12:11:05;20.80;99.90
10512;DHT22;5304;48.604;2.096;2022-07-01T12:13:51;20.90;99.90
10512;DHT22;5304;48.604;2.096;2022-07-01T12:16:40;21.00;99.90
10512;DHT22;5304;48.604;2.096;2022-07-01T12:19:29;21.20;99.90
10512;DHT22;5304;48.604;2.096;2022-07-01T12:22:23;21.50;99.90
10512;DHT22;5304;48.604;2.096;2022-07-01T12:25:11;21.70;99.90
10512;DHT22;5304;48.604;2.096;2022-07-01T12:27:55;21.50;99.90
10512;DHT22;5304;48.604;2.096;2022-07-01T12:30:41;21.40;99.90
10512;DHT22;5304;48.604;2.096;2022-07-01T12:33:26;21.40;99.90
10512;DHT22;5304;48.604;2.096;2022-07-01T12:36:11;21.20;99.90
10512;DHT22;5304;48.604;2.096;2022-07-01T12:39:04;21.10;99.90
10512;DHT22;5304;48.604;2.096;2022-07-01T12:41:50;21.10;99.90
10512;DHT22;5304;48.604;2.096;2022-07-01T12:44:44;21.10;99.90
10512;DHT22;5304;48.604;2.096;2022-07-01T12:47:34;21.60;99.90
10512;DHT22;5304;48.604;2.096;2022-07-01T12:53:11;22.60;99.90
10512;DHT22;5304;48.604;2.096;2022-07-01T12:55:57;22.40;99.90
10512;DHT22;5304;48.604;2.096;2022-07-01T12:58:42;22.10;99.90
10512;DHT22;5304;48.604;2.096;2022-07-01T13:01:26;21.80;99.90
10512;DHT22;5304;48.604;2.096;2022-07-01T13:04:11;21.70;99.90
10512;DHT22;5304;48.604;2.096;2022-07-01T13:06:55;21.50;99.90
10512;DHT22;5304;48.604;2.096;2022-07-01T13:09:39;21.40;99.90
10512;DHT22;5304;48.604;2.096;2022-07-01T13:12:24;21.30;99.90
10512;DHT22;5304;48.604;2.096;2022-07-01T13:15:09;21.20;99.90
10512;DHT22;5304;48.604;2.096;2022-07-01T13:17:54;21.20;99.90
10512;DHT22;5304;48.604;2.096;2022-07-01T13:20:38;21.20;99.90
10512;DHT22;5304;48.604;2.096;2022-07-01T13:23:24;21.20;99.90
10512;DHT22;5304;48.604;2.096;2022-07-01T13:26:08;21.50;99.90
10512;DHT22;5304;48.604;2.096;2022-07-01T13:28:53;21.90;99.90
10512;DHT22;5304;48.604;2.096;2022-07-01T13:31:37;21.90;99.90
10512;DHT22;5304;48.604;2.096;2022-07-01T13:34:21;21.80;99.90
10512;DHT22;5304;48.604;2.096;2022-07-01T13:37:06;21.80;99.90
10512;DHT22;5304;48.604;2.096;2022-07-01T13:39:50;21.70;99.90
10512;DHT22;5304;48.604;2.096;2022-07-01T13:42:35;21.60;99.90
10512;DHT22;5304;48.604;2.096;2022-07-01T13:45:20;21.50;99.90
10512;DHT22;5304;48.604;2.096;2022-07-01T13:48:04;21.50;99.90
10512;DHT22;5304;48.604;2.096;2022-07-01T13:50:49;21.40;99.90
10512;DHT22;5304;48.604;2.096;2022-07-01T13:53:34;21.40;99.90
10512;DHT22;5304;48.604;2.096;2022-07-01T13:56:18;21.30;99.90
10512;DHT22;5304;48.604;2.096;2022-07-01T13:59:03;21.20;99.90
10512;DHT22;5304;48.604;2.096;2022-07-01T14:01:47;21.20;99.90
10512;DHT22;5304;48.604;2.096;2022-07-01T14:04:32;21.20;99.90
10512;DHT22;5304;48.604;2.096;2022-07-01T14:07:16;21.40;99.90
10512;DHT22;5304;48.604;2.096;2022-07-01T14:10:02;21.50;99.90
10512;DHT22;5304;48.604;2.096;2022-07-01T14:12:47;21.90;99.90
10512;DHT22;5304;48.604;2.096;2022-07-01T14:15:31;22.10;99.90
10512;DHT22;5304;48.604;2.096;2022-07-01T14:18:16;22.10;99.90
10512;DHT22;5304;48.604;2.096;2022-07-01T14:21:01;22.10;99.90
10512;DHT22;5304;48.604;2.096;2022-07-01T14:23:46;22.10;99.90
10512;DHT22;5304;48.604;2.096;2022-07-01T14:26:30;21.90;99.90
10512;DHT22;5304;48.604;2.096;2022-07-01T14:29:15;21.80;99.90
10512;DHT22;5304;48.604;2.096;2022-07-01T14:31:59;21.70;99.90
10512;DHT22;5304;48.604;2.096;2022-07-01T14:34:44;21.70;99.90
10512;DHT22;5304;48.604;2.096;2022-07-01T14:37:28;21.80;99.90
10512;DHT22;5304;48.604;2.096;2022-07-01T14:40:13;21.80;99.90
10512;DHT22;5304;48.604;2.096;2022-07-01T14:42:58;21.80;99.90
10512;DHT22;5304;48.604;2.096;2022-07-01T14:45:43;21.70;99.90
10512;DHT22;5304;48.604;2.096;2022-07-01T14:48:27;21.60;99.90
10512;DHT22;5304;48.604;2.096;2022-07-01T14:51:12;21.60;99.90
10512;DHT22;5304;48.604;2.096;2022-07-01T14:53:56;21.60;99.90
10512;DHT22;5304;48.604;2.096;2022-07-01T14:56:40;21.50;99.90
10512;DHT22;5304;48.604;2.096;2022-07-01T14:59:25;21.50;99.90
10512;DHT22;5304;48.604;2.096;2022-07-01T15:02:10;21.50;99.90
10512;DHT22;5304;48.604;2.096;2022-07-01T15:04:54;21.50;99.90
10512;DHT22;5304;48.604;2.096;2022-07-01T15:07:39;21.40;99.90
10512;DHT22;5304;48.604;2.096;2022-07-01T15:10:24;21.50;99.90
10512;DHT22;5304;48.604;2.096;2022-07-01T15:13:08;21.60;99.90
10512;DHT22;5304;48.604;2.096;2022-07-01T15:15:52;21.80;99.90
10512;DHT22;5304;48.604;2.096;2022-07-01T15:18:36;21.80;99.90
10512;DHT22;5304;48.604;2.096;2022-07-01T15:21:21;21.70;99.90
10512;DHT22;5304;48.604;2.096;2022-07-01T15:24:05;21.80;99.90
10512;DHT22;5304;48.604;2.096;2022-07-01T15:26:51;22.00;99.90
10512;DHT22;5304;48.604;2.096;2022-07-01T15:29:36;21.90;99.90
10512;DHT22;5304;48.604;2.096;2022-07-01T15:32:20;21.80;99.90
10512;DHT22;5304;48.604;2.096;2022-07-01T15:35:05;21.70;99.90
10512;DHT22;5304;48.604;2.096;2022-07-01T15:37:52;21.60;99.90
10512;DHT22;5304;48.604;2.096;2022-07-01T15:40:37;21.60;99.90
10512;DHT22;5304;48.604;2.096;2022-07-01T15:43:21;21.60;99.90
10512;DHT22;5304;48.604;2.096;2022-07-01T15:46:09;21.50;99.90
10512;DHT22;5304;48.604;2.096;2022-07-01T15:48:53;21.50;99.90
10512;DHT22;5304;48.604;2.096;2022-07-01T15:51:37;21.50;99.90
10512;DHT22;5304;48.604;2.096;2022-07-01T15:54:23;21.50;99.90
10512;DHT22;5304;48.604;2.096;2022-07-01T15:57:07;21.50;99.90
10512;DHT22;5304;48.604;2.096;2022-07-01T15:59:52;21.40;99.90
10512;DHT22;5304;48.604;2.096;2022-07-01T16:02:39;21.50;99.90
10512;DHT22;5304;48.604;2.096;2022-07-01T16:05:23;21.40;99.90
10512;DHT22;5304;48.604;2.096;2022-07-01T16:08:12;21.40;99.90
10512;DHT22;5304;48.604;2.096;2022-07-01T16:11:09;21.40;99.90
10512;DHT22;5304;48.604;2.096;2022-07-01T16:13:55;21.40;99.90
10512;DHT22;5304;48.604;2.096;2022-07-01T16:16:40;21.30;99.90
10512;DHT22;5304;48.604;2.096;2022-07-01T16:19:28;21.30;99.90
10512;DHT22;5304;48.604;2.096;2022-07-01T16:22:15;21.20;99.90
10512;DHT22;5304;48.604;2.096;2022-07-01T16:25:04;21.20;99.90
10512;DHT22;5304;48.604;2.096;2022-07-01T16:27:49;21.30;99.90
10512;DHT22;5304;48.604;2.096;2022-07-01T16:30:39;21.40;99.90
10512;DHT22;5304;48.604;2.096;2022-07-01T16:33:23;21.70;99.90
10512;DHT22;5304;48.604;2.096;2022-07-01T16:39:22;21.70;99.90
10512;DHT22;5304;48.604;2.096;2022-07-01T16:42:14;21.60;99.90
10512;DHT22;5304;48.604;2.096;2022-07-01T16:45:07;21.50;99.90
10512;DHT22;5304;48.604;2.096;2022-07-01T16:47:54;21.40;99.90
10512;DHT22;5304;48.604;2.096;2022-07-01T16:50:48;21.40;99.90
10512;DHT22;5304;48.604;2.096;2022-07-01T16:53:42;21.40;99.90
10512;DHT22;5304;48.604;2.096;2022-07-01T16:56:28;21.40;99.90
10512;DHT22;5304;48.604;2.096;2022-07-01T16:59:13;21.40;99.90
10512;DHT22;5304;48.604;2.096;2022-07-01T17:01:59;21.40;99.90
10512;DHT22;5304;48.604;2.096;2022-07-01T17:04:45;21.40;99.90
10512;DHT22;5304;48.604;2.096;2022-07-01T17:07:32;21.30;99.90
10512;DHT22;5304;48.604;2.096;2022-07-01T17:10:17;21.10;99.90
10512;DHT22;5304;48.604;2.096;2022-07-01T17:13:02;21.10;99.90
10512;DHT22;5304;48.604;2.096;2022-07-01T17:15:47;21.10;99.90
10512;DHT22;5304;48.604;2.096;2022-07-01T17:18:32;21.10;99.90
10512;DHT22;5304;48.604;2.096;2022-07-01T17:21:16;21.00;99.90
10512;DHT22;5304;48.604;2.096;2022-07-01T17:24:04;20.90;99.90
10512;DHT22;5304;48.604;2.096;2022-07-01T17:30:06;20.90;99.90
10512;DHT22;5304;48.604;2.096;2022-07-01T17:32:58;20.90;99.90
10512;DHT22;5304;48.604;2.096;2022-07-01T17:35:52;20.80;99.90
10512;DHT22;5304;48.604;2.096;2022-07-01T17:38:51;20.80;99.90
10512;DHT22;5304;48.604;2.096;2022-07-01T17:41:38;20.80;99.90
10512;DHT22;5304;48.604;2.096;2022-07-01T17:44:24;20.70;99.90
10512;DHT22;5304;48.604;2.096;2022-07-01T17:47:11;20.60;99.90
10512;DHT22;5304;48.604;2.096;2022-07-01T17:49:57;20.60;99.90
10512;DHT22;5304;48.604;2.096;2022-07-01T17:52:42;20.60;99.90
10512;DHT22;5304;48.604;2.096;2022-07-01T17:55:28;20.50;99.90
10512;DHT22;5304;48.604;2.096;2022-07-01T17:58:15;20.50;99.90
10512;DHT22;5304;48.604;2.096;2022-07-01T18:01:00;20.40;99.90
10512;DHT22;5304;48.604;2.096;2022-07-01T18:03:45;20.50;99.90
10512;DHT22;5304;48.604;2.096;2022-07-01T18:06:30;20.50;99.90